createdAt,value
2023-05-08T00:00:59.466Z,96.10
2023-05-08T00:05:57.574Z,90.20
2023-05-08T00:10:57.901Z,79.20
2023-05-08T00:15:57.201Z,77.00
2023-05-08T00:20:56.521Z,73.30
2023-05-08T00:25:54.778Z,70.80
2023-05-08T00:30:54.080Z,72.20
2023-05-08T00:35:53.415Z,70.90
2023-05-08T00:40:52.709Z,59.90
2023-05-08T00:45:53.017Z,93.40
2023-05-08T00:50:52.556Z,59.80
2023-05-08T00:55:50.641Z,55.40
2023-05-08T01:00:52.024Z,51.10
2023-05-08T01:05:49.093Z,45.00
2023-05-08T01:10:48.366Z,42.30
2023-05-08T01:15:47.739Z,36.60
2023-05-08T01:20:48.852Z,33.90
2023-05-08T01:25:47.133Z,36.30
2023-05-08T01:30:46.407Z,35.40
2023-05-08T01:35:44.696Z,31.60
2023-05-08T01:40:44.997Z,29.00
2023-05-08T01:45:43.306Z,27.60
2023-05-08T01:50:44.615Z,23.80
2023-05-08T01:55:41.913Z,24.10
2023-05-08T02:00:41.222Z,19.70
2023-05-08T02:05:40.556Z,22.20
2023-05-08T02:10:39.682Z,20.80
2023-05-08T02:15:39.825Z,19.20
2023-05-08T02:20:37.973Z,22.60
2023-05-08T02:25:37.366Z,15.40
2023-05-08T02:30:36.486Z,14.70
2023-05-08T02:35:36.679Z,18.60
2023-05-08T02:40:34.977Z,18.30
2023-05-08T02:45:34.400Z,13.50
2023-05-08T02:50:33.515Z,12.20
2023-05-08T02:55:32.837Z,17.50
2023-05-08T03:00:33.149Z,14.20
2023-05-08T03:05:31.461Z,13.70
2023-05-08T03:10:30.734Z,10.50
2023-05-08T03:15:30.902Z,9.20
2023-05-08T03:20:30.138Z,12.20
2023-05-08T03:25:28.436Z,9.30
2023-05-08T03:30:27.752Z,8.20
2023-05-08T03:35:27.053Z,9.10
2023-05-08T03:40:27.305Z,7.20
2023-05-08T03:45:27.712Z,9.10
2023-05-08T03:50:24.735Z,6.30
2023-05-08T03:55:24.046Z,9.10
2023-05-08T04:00:23.320Z,9.70
2023-05-08T04:05:24.582Z,6.00
2023-05-08T04:10:22.825Z,5.00
2023-05-08T04:15:22.077Z,5.70
2023-05-08T04:20:21.344Z,5.90
2023-05-08T04:25:19.673Z,5.20
2023-05-08T04:30:18.912Z,4.10
2023-05-08T04:35:18.124Z,4.30
2023-05-08T04:40:17.374Z,5.60
2023-05-08T04:45:17.618Z,4.60
2023-05-08T04:50:15.847Z,4.10
2023-05-08T04:55:16.062Z,3.50
2023-05-08T05:00:14.284Z,3.70
2023-05-08T05:05:14.752Z,4.20
2023-05-08T05:10:12.732Z,3.70
2023-05-08T05:15:13.218Z,3.90
2023-05-08T05:20:12.207Z,6.60
2023-05-08T05:25:10.488Z,6.20
2023-05-08T05:30:12.049Z,4.30
2023-05-08T05:35:10.284Z,3.60
2023-05-08T05:40:09.168Z,4.10
2023-05-08T05:45:07.385Z,4.60
2023-05-08T05:50:07.641Z,4.40
2023-05-08T05:55:06.910Z,4.30
2023-05-08T06:00:05.135Z,3.50
2023-05-08T06:05:03.397Z,3.40
2023-05-08T06:10:03.665Z,4.00
2023-05-08T06:15:02.899Z,3.90
2023-05-08T06:20:02.067Z,2.40
2023-05-08T06:25:01.279Z,2.00
2023-05-08T06:30:01.506Z,2.50
2023-05-08T06:34:59.736Z,2.30
2023-05-08T06:40:10.862Z,2.30
2023-05-08T06:44:58.209Z,2.80
2023-05-08T06:49:57.429Z,2.10
2023-05-08T06:54:56.677Z,2.70
2023-05-08T06:59:56.918Z,2.90
2023-05-08T07:04:56.286Z,2.90
2023-05-08T07:09:54.346Z,3.10
2023-05-08T07:14:55.897Z,2.10
2023-05-08T07:19:53.855Z,1.80
2023-05-08T07:24:52.112Z,2.50
2023-05-08T07:29:52.336Z,3.80
2023-05-08T07:34:51.558Z,1.80
2023-05-08T07:39:49.789Z,1.60
2023-05-08T07:44:54.823Z,1.60
2023-05-08T07:49:48.223Z,1.40
2023-05-08T07:54:48.471Z,4.90
2023-05-08T07:59:48.708Z,4.10
2023-05-08T08:04:44.952Z,2.50
2023-05-08T08:09:45.209Z,3.00
2023-05-08T08:14:46.446Z,2.70
2023-05-08T08:19:42.668Z,1.40
2023-05-08T08:24:42.920Z,2.30
2023-05-08T08:29:42.181Z,3.50
2023-05-08T08:34:41.366Z,1.40
2023-05-08T08:39:41.587Z,2.20
2023-05-08T08:44:40.211Z,2.00
2023-05-08T08:49:40.016Z,1.60
2023-05-08T08:54:38.382Z,1.80
2023-05-08T08:59:37.446Z,3.40
2023-05-08T09:04:38.693Z,1.30
2023-05-08T09:09:35.995Z,1.90
2023-05-08T09:14:37.186Z,1.80
2023-05-08T09:19:34.464Z,1.30
2023-05-08T09:24:35.719Z,1.00
2023-05-08T09:29:31.976Z,1.70
2023-05-08T09:34:34.208Z,1.30
2023-05-08T09:39:31.443Z,1.10
2023-05-08T09:44:30.672Z,0.80
2023-05-08T09:49:30.928Z,0.80
2023-05-08T09:54:30.155Z,0.80
2023-05-08T09:59:30.771Z,1.60
2023-05-08T10:04:28.594Z,1.30
2023-05-08T10:09:35.609Z,1.90
2023-05-08T10:14:26.144Z,1.20
2023-05-08T10:19:25.398Z,1.50
2023-05-08T10:24:24.653Z,1.40
2023-05-08T10:29:23.891Z,1.90
2023-05-08T10:34:24.160Z,2.70
2023-05-08T10:39:25.430Z,1.40
2023-05-08T10:44:21.666Z,2.40
2023-05-08T10:49:20.926Z,1.50
2023-05-08T10:54:20.193Z,2.00
2023-05-08T10:59:20.429Z,1.20
2023-05-08T11:04:17.700Z,1.80
2023-05-08T11:09:17.980Z,1.50
2023-05-08T11:14:17.214Z,0.90
2023-05-08T11:19:16.488Z,1.90
2023-05-08T11:24:17.717Z,2.60
2023-05-08T11:29:15.948Z,1.90
2023-05-08T11:34:14.200Z,1.30
2023-05-08T11:39:14.468Z,1.10
2023-05-08T11:44:14.668Z,1.80
2023-05-08T11:49:12.961Z,1.30
2023-05-08T11:54:12.193Z,1.10
2023-05-08T11:59:10.399Z,0.90
2023-05-08T12:04:09.770Z,0.80
2023-05-08T12:09:08.974Z,0.80
2023-05-08T12:14:09.214Z,1.10
2023-05-08T12:19:07.453Z,1.00
2023-05-08T12:24:07.709Z,1.00
2023-05-08T12:29:05.991Z,1.10
2023-05-08T12:34:05.238Z,1.00
2023-05-08T12:39:03.488Z,1.10
2023-05-08T12:44:03.718Z,1.00
2023-05-08T12:49:02.969Z,1.80
2023-05-08T12:54:02.231Z,1.50
2023-05-08T12:59:02.472Z,1.20
2023-05-08T13:04:02.663Z,1.20
2023-05-08T13:08:59.849Z,3.80
2023-05-08T13:13:59.150Z,0.80
2023-05-08T13:18:58.385Z,1.20
2023-05-08T13:23:57.630Z,0.60
2023-05-08T13:28:58.886Z,1.20
2023-05-08T13:33:56.124Z,1.70
2023-05-08T13:38:56.382Z,1.80
2023-05-08T13:43:54.614Z,1.40
2023-05-08T13:48:52.875Z,1.10
2023-05-08T13:53:56.145Z,2.10
2023-05-08T13:58:53.376Z,1.10
2023-05-08T14:03:51.730Z,1.10
2023-05-08T14:08:52.717Z,1.40
2023-05-08T14:13:50.124Z,1.40
2023-05-08T14:18:50.371Z,1.00
2023-05-08T14:23:48.600Z,1.60
2023-05-08T14:28:47.822Z,1.10
2023-05-08T14:33:47.062Z,1.40
2023-05-08T14:38:47.290Z,1.50
2023-05-08T14:43:45.524Z,1.50
2023-05-08T14:48:44.765Z,3.70
2023-05-08T14:53:44.140Z,1.60
2023-05-08T14:58:43.299Z,1.50
2023-05-08T15:03:42.612Z,2.20
2023-05-08T15:08:41.901Z,1.80
2023-05-08T15:13:42.221Z,1.50
2023-05-08T15:18:40.577Z,2.20
2023-05-08T15:23:39.619Z,2.10
2023-05-08T15:28:39.852Z,3.20
2023-05-08T15:33:38.127Z,3.30
2023-05-08T15:38:38.345Z,3.20
2023-05-08T15:43:36.560Z,3.10
2023-05-08T15:48:35.827Z,3.40
2023-05-08T15:53:35.054Z,4.00
2023-05-08T15:58:37.310Z,3.00
2023-05-08T16:03:33.689Z,3.10
2023-05-08T16:08:34.871Z,3.00
2023-05-08T16:13:32.114Z,3.00
2023-05-08T16:18:32.393Z,3.20
2023-05-08T16:23:30.607Z,2.30
2023-05-08T16:28:30.857Z,2.20
2023-05-08T16:33:29.111Z,5.50
2023-05-08T16:38:27.379Z,3.00
2023-05-08T16:43:27.639Z,4.50
2023-05-08T16:48:26.906Z,3.10
2023-05-08T16:53:27.161Z,2.20
2023-05-08T16:58:25.445Z,4.50
2023-05-08T17:03:24.957Z,2.40
2023-05-08T17:08:25.154Z,153.10
2023-05-08T17:13:22.512Z,202.50
2023-05-08T17:18:22.828Z,136.00
2023-05-08T17:23:22.891Z,105.20
2023-05-08T17:28:23.155Z,75.50
2023-05-08T17:33:21.533Z,69.90
2023-05-08T17:38:19.782Z,167.40
2023-05-08T17:43:20.633Z,200.40
2023-05-08T17:48:19.254Z,158.40
2023-05-08T17:53:18.563Z,298.60
2023-05-08T17:58:18.814Z,284.00
2023-05-08T18:03:16.183Z,152.10
2023-05-08T18:08:16.299Z,140.40
2023-05-08T18:13:14.565Z,150.10
2023-05-08T18:18:13.866Z,136.80
2023-05-08T18:23:14.090Z,263.90
2023-05-08T18:28:13.298Z,259.30
2023-05-08T18:33:11.560Z,178.40
2023-05-08T18:38:10.822Z,268.10
2023-05-08T18:43:12.050Z,267.60
2023-05-08T18:48:10.337Z,223.50
2023-05-08T18:53:09.554Z,209.30
2023-05-08T18:58:07.859Z,183.00
2023-05-08T19:03:09.133Z,170.80
2023-05-08T19:08:06.339Z,127.60
2023-05-08T19:13:06.646Z,122.90
2023-05-08T19:18:04.981Z,122.10
2023-05-08T19:23:04.077Z,110.90
2023-05-08T19:28:03.317Z,90.50
2023-05-08T19:33:03.584Z,86.40
2023-05-08T19:38:01.768Z,242.20
2023-05-08T19:43:01.025Z,184.40
2023-05-08T19:48:01.298Z,202.10
2023-05-08T19:52:59.555Z,166.80
2023-05-08T19:57:58.758Z,153.90
2023-05-08T20:02:58.065Z,299.50
2023-05-08T20:08:00.209Z,245.00
2023-05-08T20:12:57.225Z,245.80
2023-05-08T20:17:55.596Z,192.30
2023-05-08T20:22:55.643Z,169.10
2023-05-08T20:27:54.736Z,176.10
2023-05-08T20:32:52.864Z,294.40
2023-05-08T20:37:53.088Z,292.20
2023-05-08T20:42:51.393Z,400.30
2023-05-08T20:47:50.715Z,242.60
2023-05-08T20:52:50.918Z,365.70
2023-05-08T20:57:49.160Z,385.70
2023-05-08T21:02:48.460Z,307.70
2023-05-08T21:07:47.704Z,288.60
2023-05-08T21:12:46.981Z,241.00
2023-05-08T21:17:48.191Z,244.00
2023-05-08T21:22:46.475Z,300.10
2023-05-08T21:27:46.677Z,258.80
2023-05-08T21:32:43.891Z,227.60
2023-05-08T21:37:46.537Z,252.00
2023-05-08T21:42:43.323Z,309.10
2023-05-08T21:47:41.564Z,273.80
2023-05-08T21:52:40.813Z,213.00
2023-05-08T21:57:41.064Z,169.90
2023-05-08T22:02:40.342Z,175.50
2023-05-08T22:07:39.593Z,157.50
2023-05-08T22:12:37.828Z,160.70
2023-05-08T22:17:37.079Z,139.30
2023-05-08T22:22:36.395Z,131.20
2023-05-08T22:27:37.464Z,124.90
2023-05-08T22:32:34.732Z,113.80
2023-05-08T22:37:33.956Z,119.10
2023-05-08T22:42:33.214Z,94.50
2023-05-08T22:47:32.535Z,93.40
2023-05-08T22:52:32.779Z,91.00
2023-05-08T22:57:32.983Z,96.30
2023-05-08T23:02:30.272Z,88.70
2023-05-08T23:07:29.518Z,71.80
2023-05-08T23:12:28.729Z,78.90
2023-05-08T23:17:27.945Z,69.60
2023-05-08T23:22:30.266Z,62.60
2023-05-08T23:27:26.465Z,60.30
2023-05-08T23:32:27.687Z,60.50
2023-05-08T23:37:25.899Z,56.60
2023-05-08T23:42:25.120Z,53.30
2023-05-08T23:47:23.320Z,62.00
2023-05-08T23:52:22.556Z,51.10
2023-05-08T23:57:21.794Z,50.80
